createdAt,value
2023-12-18T00:01:44.886Z,-1.04
2023-12-18T00:04:12.995Z,-1.22
2023-12-18T00:06:41.119Z,-1.09
2023-12-18T00:09:09.206Z,-1.21
2023-12-18T00:11:38.573Z,-1.14
2023-12-18T00:14:06.560Z,-1.10
2023-12-18T00:16:34.556Z,-1.03
2023-12-18T00:19:02.762Z,-1.19
2023-12-18T00:21:30.870Z,-1.09
2023-12-18T00:23:58.902Z,-1.22
2023-12-18T00:26:26.882Z,-1.08
2023-12-18T00:28:56.237Z,-1.29
2023-12-18T00:31:24.387Z,-1.12
2023-12-18T00:33:52.529Z,-1.20
2023-12-18T00:36:20.615Z,-1.18
2023-12-18T00:38:48.655Z,-1.32
2023-12-18T00:41:16.668Z,-1.23
2023-12-18T00:43:44.651Z,-1.43
2023-12-18T00:46:14.058Z,-1.55
2023-12-18T00:48:42.111Z,-1.84
2023-12-18T00:51:12.437Z,-1.51
2023-12-18T00:53:40.523Z,-1.51
2023-12-18T00:56:08.730Z,-1.73
2023-12-18T00:58:36.769Z,-1.77
2023-12-18T01:01:05.035Z,-1.84
2023-12-18T01:03:34.689Z,-1.80
2023-12-18T01:06:03.771Z,-1.84
2023-12-18T01:08:31.800Z,-1.77
2023-12-18T01:10:59.711Z,-1.82
2023-12-18T01:13:27.755Z,-1.93
2023-12-18T01:15:57.504Z,-1.86
2023-12-18T01:18:25.767Z,-1.79
2023-12-18T01:20:55.177Z,-1.76
2023-12-18T01:23:23.169Z,-1.81
2023-12-18T01:25:51.163Z,-1.85
2023-12-18T01:28:19.179Z,-1.80
2023-12-18T01:30:47.215Z,-1.85
2023-12-18T01:33:15.352Z,-1.83
2023-12-18T01:35:43.415Z,-1.73
2023-12-18T01:38:13.126Z,-1.73
2023-12-18T01:40:41.115Z,-1.94
2023-12-18T01:43:27.671Z,-1.71
2023-12-18T01:46:00.037Z,-1.66
2023-12-18T01:48:28.891Z,-1.69
2023-12-18T01:50:58.955Z,-1.60
2023-12-18T01:53:32.154Z,-1.78
2023-12-18T01:56:00.308Z,-1.96
2023-12-18T01:58:29.209Z,-2.03
2023-12-18T02:00:57.416Z,-2.09
2023-12-18T02:03:26.235Z,-2.24
2023-12-18T02:05:55.008Z,-2.02
2023-12-18T02:08:23.447Z,-2.17
2023-12-18T02:10:53.277Z,-2.14
2023-12-18T02:13:21.308Z,-2.07
2023-12-18T02:15:49.460Z,-1.87
2023-12-18T02:18:17.550Z,-2.03
2023-12-18T02:20:45.868Z,-1.99
2023-12-18T02:23:15.312Z,-1.98
2023-12-18T02:25:43.307Z,-2.09
2023-12-18T02:28:13.919Z,-2.09
2023-12-18T02:30:42.047Z,-2.12
2023-12-18T02:33:10.303Z,-2.22
2023-12-18T02:35:38.359Z,-2.24
2023-12-18T02:38:06.384Z,-2.27
2023-12-18T02:40:36.937Z,-2.29
2023-12-18T02:43:05.548Z,-2.25
2023-12-18T02:45:33.621Z,-2.30
2023-12-18T02:48:01.731Z,-2.44
2023-12-18T02:50:29.823Z,-2.30
2023-12-18T02:52:57.821Z,-2.44
2023-12-18T02:55:25.841Z,-2.49
2023-12-18T02:57:55.234Z,-2.47
2023-12-18T03:00:23.286Z,-2.41
2023-12-18T03:02:51.353Z,-2.23
2023-12-18T03:05:19.581Z,-2.18
2023-12-18T03:07:47.582Z,-1.96
2023-12-18T03:10:15.560Z,-2.28
2023-12-18T03:12:43.597Z,-2.45
2023-12-18T03:15:13.338Z,-2.38
2023-12-18T03:17:41.651Z,-2.62
2023-12-18T03:20:10.546Z,-2.33
2023-12-18T03:22:38.605Z,-2.27
2023-12-18T03:25:07.540Z,-2.39
2023-12-18T03:27:35.613Z,-2.34
2023-12-18T03:30:04.098Z,-2.30
2023-12-18T03:32:33.549Z,-2.46
2023-12-18T03:35:01.548Z,-2.37
2023-12-18T03:37:29.509Z,-2.19
2023-12-18T03:39:57.516Z,-2.25
2023-12-18T03:42:25.631Z,-2.34
2023-12-18T03:44:53.699Z,-2.49
2023-12-18T03:47:21.698Z,-2.27
2023-12-18T03:49:51.114Z,-2.22
2023-12-18T03:52:19.176Z,-2.24
2023-12-18T03:54:47.212Z,-2.12
2023-12-18T03:57:15.295Z,-1.99
2023-12-18T03:59:43.287Z,-2.06
2023-12-18T04:02:11.275Z,-1.96
2023-12-18T04:04:39.372Z,-2.09
2023-12-18T04:07:08.838Z,-2.29
2023-12-18T04:09:39.852Z,-2.25
2023-12-18T04:12:08.704Z,-2.12
2023-12-18T04:14:36.689Z,-2.02
2023-12-18T04:17:04.848Z,-2.19
2023-12-18T04:19:32.966Z,-2.38
2023-12-18T04:22:00.992Z,-2.49
2023-12-18T04:24:30.397Z,-2.49
2023-12-18T04:26:59.011Z,-2.37
2023-12-18T04:29:27.015Z,-2.40
2023-12-18T04:31:55.277Z,-2.58
2023-12-18T04:34:23.401Z,-2.53
2023-12-18T04:36:51.445Z,-2.41
2023-12-18T04:39:19.496Z,-2.41
2023-12-18T04:41:48.868Z,-2.38
2023-12-18T04:44:17.060Z,-2.45
2023-12-18T04:46:45.026Z,-2.71
2023-12-18T04:49:14.450Z,-2.60
2023-12-18T04:51:42.511Z,-2.67
2023-12-18T04:54:10.668Z,-2.57
2023-12-18T04:56:38.777Z,-2.45
2023-12-18T04:59:08.245Z,-2.48
2023-12-18T05:01:36.322Z,-2.54
2023-12-18T05:04:05.171Z,-2.64
2023-12-18T05:06:33.330Z,-2.69
2023-12-18T05:09:01.406Z,-2.63
2023-12-18T05:11:29.458Z,-2.69
2023-12-18T05:13:57.477Z,-2.50
2023-12-18T05:16:26.910Z,-2.49
2023-12-18T05:18:55.400Z,-2.62
2023-12-18T05:21:23.501Z,-2.44
2023-12-18T05:23:51.867Z,-2.33
2023-12-18T05:26:19.897Z,-2.19
2023-12-18T05:28:47.959Z,-2.17
2023-12-18T05:31:18.422Z,-2.23
2023-12-18T05:33:48.078Z,-2.26
2023-12-18T05:36:16.790Z,-2.56
2023-12-18T05:38:44.786Z,-2.49
2023-12-18T05:41:12.800Z,-2.30
2023-12-18T05:43:40.768Z,-2.30
2023-12-18T05:46:12.634Z,-2.22
2023-12-18T05:48:40.725Z,-2.00
2023-12-18T05:51:20.737Z,-2.17
2023-12-18T05:53:49.485Z,-2.27
2023-12-18T05:56:17.961Z,-2.27
2023-12-18T05:58:46.131Z,-2.25
2023-12-18T06:01:14.116Z,-2.32
2023-12-18T06:03:42.327Z,-2.16
2023-12-18T06:06:11.928Z,-2.37
2023-12-18T06:08:39.968Z,-2.25
2023-12-18T06:11:07.992Z,-2.44
2023-12-18T06:13:36.005Z,-2.60
2023-12-18T06:16:04.015Z,-2.55
2023-12-18T06:18:32.149Z,-2.63
2023-12-18T06:21:04.366Z,-2.62
2023-12-18T06:23:34.017Z,-2.68
2023-12-18T06:26:03.232Z,-2.90
2023-12-18T06:28:31.920Z,-2.78
2023-12-18T06:31:00.167Z,-2.69
2023-12-18T06:33:28.536Z,-2.67
2023-12-18T06:35:56.834Z,-2.65
2023-12-18T06:38:24.940Z,-2.69
2023-12-18T06:40:54.349Z,-2.56
2023-12-18T06:43:22.334Z,-2.45
2023-12-18T06:45:50.365Z,-2.40
2023-12-18T06:48:18.515Z,-2.43
2023-12-18T06:51:04.836Z,-2.50
2023-12-18T06:53:32.823Z,-2.57
2023-12-18T06:56:02.183Z,-2.60
2023-12-18T06:58:30.132Z,-2.61
2023-12-18T07:00:58.180Z,-2.54
2023-12-18T07:03:27.385Z,-2.67
2023-12-18T07:05:56.360Z,-2.59
2023-12-18T07:08:24.521Z,-2.73
2023-12-18T07:10:52.644Z,-2.66
2023-12-18T07:13:22.046Z,-2.62
2023-12-18T07:15:50.127Z,-2.50
2023-12-18T07:18:18.784Z,-2.66
2023-12-18T07:20:48.428Z,-2.69
2023-12-18T07:23:16.436Z,-2.95
2023-12-18T07:25:44.387Z,-2.98
2023-12-18T07:28:12.377Z,-2.87
2023-12-18T07:30:41.905Z,-2.79
2023-12-18T07:33:10.093Z,-2.67
2023-12-18T07:35:38.206Z,-2.58
2023-12-18T07:38:06.322Z,-2.52
2023-12-18T07:40:34.277Z,-2.47
2023-12-18T07:43:02.253Z,-2.40
2023-12-18T07:45:30.203Z,-2.48
2023-12-18T07:47:59.659Z,-2.54
2023-12-18T07:50:29.131Z,-2.43
2023-12-18T07:53:00.901Z,-2.10
2023-12-18T07:55:32.804Z,-1.97
2023-12-18T07:58:03.658Z,-2.09
2023-12-18T08:00:42.077Z,-2.17
2023-12-18T08:03:11.616Z,-2.13
2023-12-18T08:05:39.706Z,-1.99
2023-12-18T08:08:08.251Z,-2.48
2023-12-18T08:10:36.205Z,-2.12
2023-12-18T08:13:04.297Z,-2.05
2023-12-18T08:15:32.301Z,-2.09
2023-12-18T08:18:01.292Z,-1.87
2023-12-18T08:20:30.799Z,-1.81
2023-12-18T08:22:58.738Z,-1.87
2023-12-18T08:25:27.143Z,-1.85
2023-12-18T08:27:56.196Z,-1.81
2023-12-18T08:30:25.193Z,-2.14
2023-12-18T08:32:53.851Z,-1.94
2023-12-18T08:35:22.740Z,-1.65
2023-12-18T08:37:52.197Z,-1.67
2023-12-18T08:40:20.203Z,-1.77
2023-12-18T08:42:48.273Z,-1.69
2023-12-18T08:45:16.468Z,-1.78
2023-12-18T08:47:44.628Z,-1.52
2023-12-18T08:50:12.699Z,-1.44
2023-12-18T08:52:40.935Z,-1.69
2023-12-18T08:55:10.829Z,-1.62
2023-12-18T08:57:39.226Z,-0.89
2023-12-18T09:00:10.492Z,-1.53
2023-12-18T09:02:38.555Z,-1.62
2023-12-18T09:05:07.244Z,-1.46
2023-12-18T09:07:35.236Z,-1.23
2023-12-18T09:10:03.247Z,-1.07
2023-12-18T09:12:32.716Z,-0.92
2023-12-18T09:15:00.697Z,-0.79
2023-12-18T09:17:29.979Z,-0.96
2023-12-18T09:19:58.158Z,-0.96
2023-12-18T09:22:26.449Z,-0.51
2023-12-18T09:24:54.479Z,-0.80
2023-12-18T09:27:22.836Z,-0.58
2023-12-18T09:29:52.292Z,-0.59
2023-12-18T09:32:20.542Z,-0.98
2023-12-18T09:34:48.941Z,-0.86
2023-12-18T09:37:17.263Z,-0.80
2023-12-18T09:39:45.569Z,0.09
2023-12-18T09:42:16.584Z,-0.29
2023-12-18T09:44:49.328Z,-0.54
2023-12-18T09:47:19.954Z,-0.16
2023-12-18T09:49:48.064Z,-0.08
2023-12-18T09:52:16.701Z,0.09
2023-12-18T09:54:45.914Z,0.13
2023-12-18T09:57:17.109Z,-0.31
2023-12-18T09:59:45.268Z,-0.06
2023-12-18T10:02:14.430Z,-0.23
2023-12-18T10:04:44.550Z,0.06
2023-12-18T10:07:12.555Z,0.14
2023-12-18T10:09:41.352Z,0.27
2023-12-18T10:12:11.963Z,0.44
2023-12-18T10:14:41.592Z,0.88
2023-12-18T10:17:09.628Z,0.80
2023-12-18T10:19:37.760Z,1.05
2023-12-18T10:22:08.130Z,0.82
2023-12-18T10:24:41.657Z,0.45
2023-12-18T10:27:09.813Z,0.51
2023-12-18T10:29:37.995Z,0.39
2023-12-18T10:32:06.613Z,0.58
2023-12-18T10:34:38.081Z,0.62
2023-12-18T10:37:07.864Z,0.97
2023-12-18T10:39:40.580Z,0.55
2023-12-18T10:42:19.674Z,0.85
2023-12-18T10:44:48.078Z,0.66
2023-12-18T10:47:17.424Z,1.45
2023-12-18T10:49:46.939Z,0.88
2023-12-18T10:52:17.041Z,0.78
2023-12-18T10:54:47.195Z,1.11
2023-12-18T10:57:18.755Z,1.78
2023-12-18T10:59:52.209Z,1.53
2023-12-18T11:02:20.844Z,1.22
2023-12-18T11:04:49.779Z,1.82
2023-12-18T11:07:20.845Z,2.40
2023-12-18T11:09:50.751Z,2.22
2023-12-18T11:12:21.000Z,1.61
2023-12-18T11:15:00.667Z,2.08
2023-12-18T11:17:40.331Z,1.80
2023-12-18T11:20:18.917Z,1.56
2023-12-18T11:22:49.861Z,2.00
2023-12-18T11:25:19.351Z,1.93
2023-12-18T11:27:47.402Z,1.94
2023-12-18T11:30:26.555Z,2.28
2023-12-18T11:32:54.937Z,2.34
2023-12-18T11:35:29.766Z,2.31
2023-12-18T11:38:08.349Z,2.15
2023-12-18T11:40:44.288Z,1.84
2023-12-18T11:43:13.978Z,1.93
2023-12-18T11:45:42.511Z,2.15
2023-12-18T11:48:11.632Z,2.11
2023-12-18T11:50:40.909Z,2.30
2023-12-18T11:53:20.169Z,2.43
2023-12-18T11:55:51.474Z,2.73
2023-12-18T11:58:21.836Z,3.21
2023-12-18T12:00:50.399Z,3.04
2023-12-18T12:03:18.801Z,3.04
2023-12-18T12:05:48.236Z,3.52
2023-12-18T12:08:18.076Z,3.17
2023-12-18T12:10:47.534Z,3.65
2023-12-18T12:13:20.249Z,3.01
2023-12-18T12:15:58.936Z,3.32
2023-12-18T12:18:28.310Z,3.61
2023-12-18T12:20:56.921Z,3.44
2023-12-18T12:23:27.095Z,3.34
2023-12-18T12:25:58.801Z,3.66
2023-12-18T12:28:29.625Z,3.81
2023-12-18T12:30:57.822Z,3.74
2023-12-18T12:33:26.219Z,3.72
2023-12-18T12:35:55.020Z,3.38
2023-12-18T12:38:23.116Z,3.74
2023-12-18T12:40:53.928Z,4.16
2023-12-18T12:43:22.030Z,4.24
2023-12-18T12:45:50.704Z,4.15
2023-12-18T12:48:18.801Z,4.80
2023-12-18T12:50:48.812Z,4.94
2023-12-18T12:53:16.802Z,5.22
2023-12-18T12:55:44.844Z,5.45
2023-12-18T12:58:14.442Z,5.45
2023-12-18T13:00:42.545Z,5.54
2023-12-18T13:03:10.743Z,5.16
2023-12-18T13:05:38.920Z,5.76
2023-12-18T13:08:07.060Z,6.51
2023-12-18T13:10:34.057Z,5.44
2023-12-18T13:13:02.042Z,6.36
2023-12-18T13:15:31.573Z,5.97
2023-12-18T13:17:59.688Z,6.76
2023-12-18T13:20:29.249Z,7.07
2023-12-18T13:22:58.027Z,6.96
2023-12-18T13:25:25.972Z,6.42
2023-12-18T13:27:54.494Z,7.01
2023-12-18T13:30:22.755Z,6.98
2023-12-18T13:32:52.273Z,6.58
2023-12-18T13:35:20.678Z,6.59
2023-12-18T13:37:48.753Z,6.66
2023-12-18T13:40:16.811Z,6.13
2023-12-18T13:42:44.920Z,6.57
2023-12-18T13:45:13.006Z,6.27
2023-12-18T13:47:41.152Z,6.47
2023-12-18T13:50:12.097Z,6.64
2023-12-18T13:52:40.284Z,6.78
2023-12-18T13:55:09.041Z,7.57
2023-12-18T13:57:43.612Z,7.28
2023-12-18T14:00:16.862Z,7.82
2023-12-18T14:02:44.851Z,8.28
2023-12-18T14:05:14.532Z,8.35
2023-12-18T14:07:42.891Z,7.77
2023-12-18T14:10:11.444Z,7.26
2023-12-18T14:12:39.750Z,6.78
2023-12-18T14:15:09.065Z,5.97
2023-12-18T14:17:37.067Z,5.59
2023-12-18T14:20:06.574Z,5.58
2023-12-18T14:22:36.422Z,5.30
2023-12-18T14:25:04.609Z,5.45
2023-12-18T14:27:34.268Z,5.67
2023-12-18T14:30:02.605Z,5.56
2023-12-18T14:32:30.581Z,5.67
2023-12-18T14:34:58.756Z,5.75
2023-12-18T14:37:26.899Z,5.85
2023-12-18T14:39:56.384Z,5.51
2023-12-18T14:42:24.506Z,5.37
2023-12-18T14:44:52.545Z,5.42
2023-12-18T14:47:20.582Z,5.20
2023-12-18T14:49:48.679Z,5.16
2023-12-18T14:52:16.728Z,5.20
2023-12-18T14:54:44.745Z,5.08
2023-12-18T14:57:14.153Z,4.96
2023-12-18T14:59:42.137Z,5.22
2023-12-18T15:02:10.144Z,5.23
2023-12-18T15:04:38.136Z,4.84
2023-12-18T15:07:06.796Z,4.86
2023-12-18T15:09:34.836Z,4.92
2023-12-18T15:12:02.877Z,4.82
2023-12-18T15:14:32.492Z,4.87
2023-12-18T15:17:05.811Z,4.79
2023-12-18T15:19:37.005Z,4.58
2023-12-18T15:22:05.931Z,4.63
2023-12-18T15:24:34.133Z,4.54
2023-12-18T15:27:02.106Z,4.48
2023-12-18T15:29:31.201Z,4.38
2023-12-18T15:32:00.559Z,4.31
2023-12-18T15:34:28.670Z,4.22
2023-12-18T15:36:56.886Z,3.98
2023-12-18T15:39:25.203Z,3.67
2023-12-18T15:41:53.367Z,3.80
2023-12-18T15:44:21.407Z,3.83
2023-12-18T15:46:49.490Z,3.52
2023-12-18T15:49:25.319Z,3.09
2023-12-18T15:51:55.043Z,3.14
2023-12-18T15:54:23.033Z,3.03
2023-12-18T15:56:53.801Z,3.03
2023-12-18T15:59:22.966Z,2.84
2023-12-18T16:01:51.071Z,2.71
2023-12-18T16:04:20.535Z,2.85
2023-12-18T16:06:49.125Z,2.86
2023-12-18T16:09:17.189Z,2.77
2023-12-18T16:11:45.182Z,2.71
2023-12-18T16:14:13.155Z,2.58
2023-12-18T16:16:41.222Z,2.28
2023-12-18T16:19:09.292Z,2.54
2023-12-18T16:21:39.691Z,2.53
2023-12-18T16:24:08.411Z,2.48
2023-12-18T16:26:37.240Z,2.48
2023-12-18T16:29:06.610Z,2.43
2023-12-18T16:31:34.710Z,2.39
2023-12-18T16:34:03.228Z,2.15
2023-12-18T16:36:31.687Z,1.96
2023-12-18T16:39:01.249Z,2.00
2023-12-18T16:41:32.702Z,1.94
2023-12-18T16:44:01.386Z,2.13
2023-12-18T16:46:39.691Z,2.12
2023-12-18T16:49:11.498Z,2.06
2023-12-18T16:51:40.165Z,1.96
2023-12-18T16:54:09.728Z,2.03
2023-12-18T16:56:38.093Z,1.96
2023-12-18T16:59:06.291Z,1.91
2023-12-18T17:01:34.368Z,1.92
2023-12-18T17:04:02.569Z,1.68
2023-12-18T17:06:30.868Z,1.67
2023-12-18T17:08:59.119Z,1.52
2023-12-18T17:11:28.687Z,1.45
2023-12-18T17:13:56.749Z,1.37
2023-12-18T17:16:25.023Z,1.35
2023-12-18T17:18:53.052Z,1.41
2023-12-18T17:21:21.165Z,1.19
2023-12-18T17:23:49.160Z,1.14
2023-12-18T17:26:19.453Z,1.08
2023-12-18T17:28:51.311Z,1.14
2023-12-18T17:31:19.394Z,1.21
2023-12-18T17:33:47.604Z,1.07
2023-12-18T17:36:18.279Z,0.85
2023-12-18T17:38:46.375Z,1.01
2023-12-18T17:41:15.378Z,0.94
2023-12-18T17:43:43.881Z,1.12
2023-12-18T17:46:15.359Z,1.18
2023-12-18T17:48:44.044Z,1.18
2023-12-18T17:51:13.247Z,0.73
2023-12-18T17:53:41.458Z,0.63
2023-12-18T17:56:11.771Z,0.38
2023-12-18T17:58:40.212Z,0.87
2023-12-18T18:01:09.507Z,0.73
2023-12-18T18:03:39.122Z,0.90
2023-12-18T18:06:10.202Z,0.72
2023-12-18T18:08:38.857Z,0.77
2023-12-18T18:11:07.894Z,0.75
2023-12-18T18:13:35.987Z,0.75
2023-12-18T18:16:04.234Z,0.99
2023-12-18T18:18:32.424Z,0.87
2023-12-18T18:21:01.946Z,0.82
2023-12-18T18:23:30.324Z,0.59
2023-12-18T18:25:58.369Z,0.67
2023-12-18T18:28:26.396Z,0.62
2023-12-18T18:30:56.598Z,0.47
2023-12-18T18:33:26.268Z,0.66
2023-12-18T18:35:54.343Z,0.64
2023-12-18T18:38:23.888Z,0.46
2023-12-18T18:40:51.909Z,0.59
2023-12-18T18:43:20.090Z,0.44
2023-12-18T18:45:48.152Z,0.50
2023-12-18T18:48:16.263Z,0.61
2023-12-18T18:50:44.346Z,0.56
2023-12-18T18:53:12.378Z,0.75
2023-12-18T18:55:41.795Z,0.85
2023-12-18T18:58:09.788Z,0.95
2023-12-18T19:00:39.132Z,0.85
2023-12-18T19:03:12.814Z,1.15
2023-12-18T19:05:44.893Z,0.90
2023-12-18T19:08:12.885Z,1.25
2023-12-18T19:10:42.342Z,0.85
2023-12-18T19:13:10.363Z,1.01
2023-12-18T19:15:38.408Z,0.85
2023-12-18T19:18:06.859Z,0.87
2023-12-18T19:20:35.661Z,0.87
2023-12-18T19:23:04.538Z,0.76
2023-12-18T19:25:32.722Z,0.73
2023-12-18T19:28:02.514Z,0.49
2023-12-18T19:30:30.834Z,0.00
2023-12-18T19:32:58.887Z,0.06
2023-12-18T19:35:27.052Z,-0.10
2023-12-18T19:37:55.089Z,0.12
2023-12-18T19:40:24.200Z,-0.02
2023-12-18T19:42:52.416Z,0.19
2023-12-18T19:45:22.047Z,0.11
2023-12-18T19:50:21.435Z,0.05
2023-12-18T19:52:49.500Z,0.08
2023-12-18T19:55:17.592Z,0.23
2023-12-18T19:57:46.610Z,0.26
2023-12-18T20:00:16.307Z,0.51
2023-12-18T20:02:48.584Z,0.49
2023-12-18T20:05:16.675Z,0.52
2023-12-18T20:07:44.792Z,0.87
2023-12-18T20:10:13.217Z,0.59
2023-12-18T20:12:41.532Z,0.82
2023-12-18T20:15:11.386Z,0.83
2023-12-18T20:17:39.467Z,0.64
2023-12-18T20:20:09.832Z,0.61
2023-12-18T20:22:37.887Z,0.79
2023-12-18T20:25:06.792Z,0.61
2023-12-18T20:27:34.894Z,0.56
2023-12-18T20:30:02.971Z,0.41
2023-12-18T20:32:32.493Z,0.44
2023-12-18T20:35:03.297Z,0.54
2023-12-18T20:37:32.675Z,0.53
2023-12-18T20:40:00.925Z,0.46
2023-12-18T20:42:29.002Z,0.45
2023-12-18T20:44:57.214Z,0.49
2023-12-18T20:47:25.249Z,0.41
2023-12-18T20:49:53.350Z,0.37
2023-12-18T20:52:21.387Z,0.31
2023-12-18T20:54:50.879Z,0.26
2023-12-18T20:57:19.926Z,0.18
2023-12-18T20:59:51.289Z,0.03
2023-12-18T21:02:26.730Z,-0.06
2023-12-18T21:04:55.082Z,-0.10
2023-12-18T21:07:23.148Z,-0.08
2023-12-18T21:09:53.599Z,-0.24
2023-12-18T21:12:22.622Z,-0.29
2023-12-18T21:14:50.734Z,-0.33
2023-12-18T21:17:18.749Z,-0.07
2023-12-18T21:19:46.827Z,-0.51
2023-12-18T21:22:14.930Z,-0.78
2023-12-18T21:24:43.211Z,-0.81
2023-12-18T21:27:12.721Z,-0.78
2023-12-18T21:29:40.670Z,-0.74
2023-12-18T21:32:09.170Z,-0.88
2023-12-18T21:34:37.429Z,-0.90
2023-12-18T21:37:06.738Z,-0.63
2023-12-18T21:39:34.877Z,-0.48
2023-12-18T21:42:05.890Z,-0.83
2023-12-18T21:44:35.266Z,-1.08
2023-12-18T21:47:03.318Z,-0.68
2023-12-18T21:49:32.391Z,-0.58
2023-12-18T21:52:01.594Z,-0.92
2023-12-18T21:54:29.680Z,-0.63
2023-12-18T21:56:57.779Z,-0.67
2023-12-18T21:59:36.313Z,-0.70
2023-12-18T22:02:04.342Z,-0.64
2023-12-18T22:04:32.369Z,-0.49
2023-12-18T22:07:00.586Z,-0.44
2023-12-18T22:09:28.623Z,-0.39
2023-12-18T22:11:56.605Z,-0.50
2023-12-18T22:14:25.468Z,-0.59
2023-12-18T22:16:56.567Z,-0.47
2023-12-18T22:19:25.155Z,-0.52
2023-12-18T22:21:53.226Z,-0.55
2023-12-18T22:24:21.272Z,-0.60
2023-12-18T22:26:49.285Z,-0.51
2023-12-18T22:29:17.286Z,-0.81
2023-12-18T22:31:45.408Z,-1.08
2023-12-18T22:34:15.025Z,-0.91
2023-12-18T22:36:43.185Z,-0.94
2023-12-18T22:39:12.127Z,-0.89
2023-12-18T22:41:41.830Z,-0.81
2023-12-18T22:44:10.160Z,-0.23
2023-12-18T22:46:39.858Z,0.22
2023-12-18T22:49:08.381Z,0.80
2023-12-18T22:51:37.838Z,1.63
2023-12-18T22:54:05.928Z,1.66
2023-12-18T22:56:33.893Z,2.35
2023-12-18T22:59:01.858Z,2.76
2023-12-18T23:01:29.946Z,3.69
2023-12-18T23:03:59.115Z,3.46
2023-12-18T23:06:27.268Z,3.40
2023-12-18T23:08:57.224Z,3.49
2023-12-18T23:11:25.788Z,4.35
2023-12-18T23:13:53.778Z,4.80
2023-12-18T23:16:21.995Z,4.63
2023-12-18T23:18:50.115Z,3.51
2023-12-18T23:21:18.182Z,2.82
2023-12-18T23:23:46.264Z,2.06
2023-12-18T23:26:15.621Z,1.58
2023-12-18T23:28:43.631Z,1.37
2023-12-18T23:31:11.724Z,0.92
2023-12-18T23:33:39.904Z,0.65
2023-12-18T23:36:08.664Z,0.55
2023-12-18T23:38:36.694Z,0.41
2023-12-18T23:41:04.933Z,0.38
2023-12-18T23:43:34.588Z,0.18
2023-12-18T23:46:02.805Z,0.08
2023-12-18T23:48:30.888Z,0.09
2023-12-18T23:50:58.906Z,-0.08
2023-12-18T23:53:27.007Z,0.13
2023-12-18T23:55:54.984Z,0.36
2023-12-18T23:58:22.956Z,0.41
